Time;durP1;ratioP1;P1;durP2;ratioP2;P2;SDS_P1;SDS_P2;PMS_P1;PMS_P2;Temp;Humidity;BMP_temperature;BMP_pressure;BME280_temperature;BME280_humidity;BME280_pressure;Samples;Min_cycle;Max_cycle;Signal;HPM_P1;HPM_P2
2023/11/08 00:01:37;;;;;;;6.67;2.07;;;;;;;8.26;100.00;100265.84;5057905;28;20048;-75
2023/11/08 00:04:06;;;;;;;6.88;1.77;;;;;;;8.24;100.00;100261.53;5038747;28;20518;-73
2023/11/08 00:06:35;;;;;;;8.93;2.13;;;;;;;8.24;100.00;100266.81;5053964;28;20481;-73
2023/11/08 00:09:05;;;;;;;8.00;1.80;;;;;;;8.27;100.00;100261.44;5058604;28;20059;-73
2023/11/08 00:11:34;;;;;;;6.55;1.50;;;;;;;8.36;100.00;100267.22;5066928;28;20049;-72
2023/11/08 00:14:04;;;;;;;4.85;1.40;;;;;;;8.32;100.00;100265.66;5054742;28;20044;-73
2023/11/08 00:16:36;;;;;;;6.55;1.58;;;;;;;8.36;100.00;100269.84;5049796;28;20458;-73
2023/11/08 00:19:07;;;;;;;5.15;1.42;;;;;;;8.32;100.00;100259.50;5045622;28;20091;-73
2023/11/08 00:21:38;;;;;;;4.85;1.48;;;;;;;8.29;100.00;100271.00;5051435;28;20052;-72
2023/11/08 00:24:07;;;;;;;10.10;1.80;;;;;;;8.35;100.00;100276.06;5054533;28;20053;-72
2023/11/08 00:26:36;;;;;;;6.40;1.48;;;;;;;8.37;100.00;100273.34;5039698;28;20056;-73
2023/11/08 00:29:04;;;;;;;6.72;1.80;;;;;;;8.24;100.00;100251.00;5045954;28;20041;-73
2023/11/08 00:31:36;;;;;;;5.55;1.67;;;;;;;8.33;100.00;100270.00;5053760;28;20045;-72
2023/11/08 00:34:04;;;;;;;8.20;1.55;;;;;;;8.40;100.00;100260.91;5053837;28;20163;-72
2023/11/08 00:36:33;;;;;;;6.25;1.60;;;;;;;8.43;100.00;100263.44;5050183;28;20087;-74
2023/11/08 00:39:03;;;;;;;10.07;1.60;;;;;;;8.48;100.00;100265.03;5042475;28;20068;-73
2023/11/08 00:41:32;;;;;;;6.97;2.03;;;;;;;8.55;100.00;100269.13;5027030;28;20050;-72
2023/11/08 00:44:01;;;;;;;5.90;1.85;;;;;;;8.44;100.00;100253.72;5050834;28;20458;-72
2023/11/08 00:46:30;;;;;;;7.28;1.77;;;;;;;8.50;100.00;100263.19;5033309;28;20045;-74
2023/11/08 00:49:01;;;;;;;7.68;1.77;;;;;;;8.49;100.00;100250.91;5042913;28;20140;-72
2023/11/08 00:51:29;;;;;;;9.45;1.55;;;;;;;8.57;100.00;100275.19;5046671;28;20497;-72
2023/11/08 00:54:00;;;;;;;7.35;1.80;;;;;;;8.57;100.00;100272.56;5052244;28;20046;-72
2023/11/08 00:56:31;;;;;;;8.45;2.05;;;;;;;8.55;100.00;100272.63;5067698;28;20471;-73
2023/11/08 00:59:02;;;;;;;7.68;1.58;;;;;;;8.50;100.00;100271.94;5026063;28;20496;-73
2023/11/08 01:01:35;;;;;;;8.38;2.00;;;;;;;8.51;100.00;100271.03;5052570;28;20148;-73
2023/11/08 01:04:11;;;;;;;5.72;1.77;;;;;;;8.46;100.00;100267.72;5050398;28;20521;-73
2023/11/08 01:06:39;;;;;;;4.00;1.45;;;;;;;8.56;100.00;100273.47;5047803;28;20037;-72
2023/11/08 01:09:09;;;;;;;4.10;1.45;;;;;;;8.56;100.00;100276.13;5042232;28;20061;-72
2023/11/08 01:11:38;;;;;;;5.07;1.83;;;;;;;8.55;100.00;100282.31;5048979;28;20056;-72
2023/11/08 01:14:08;;;;;;;4.03;1.35;;;;;;;8.55;100.00;100283.19;5052855;28;20132;-72
2023/11/08 01:16:37;;;;;;;8.77;2.03;;;;;;;8.58;100.00;100285.69;5028905;28;20048;-73
2023/11/08 01:19:06;;;;;;;4.35;1.42;;;;;;;8.64;100.00;100289.88;5039388;28;20057;-73
2023/11/08 01:21:34;;;;;;;5.57;1.80;;;;;;;8.63;100.00;100282.88;5037010;28;20045;-73
2023/11/08 01:24:04;;;;;;;6.18;1.73;;;;;;;8.65;100.00;100287.19;5044056;28;20137;-73
2023/11/08 01:26:32;;;;;;;7.15;1.77;;;;;;;8.63;100.00;100290.81;5073810;28;20056;-72
2023/11/08 01:29:03;;;;;;;8.23;1.80;;;;;;;8.63;100.00;100296.94;5044314;28;20056;-72
2023/11/08 01:31:31;;;;;;;5.80;1.60;;;;;;;8.58;100.00;100298.91;5049542;28;20048;-73
2023/11/08 01:34:00;;;;;;;8.15;1.60;;;;;;;8.54;100.00;100297.28;5053918;28;20045;-72
2023/11/08 01:36:30;;;;;;;5.20;1.98;;;;;;;8.51;100.00;100299.19;5067742;28;20041;-73
2023/11/08 01:38:59;;;;;;;7.90;1.80;;;;;;;8.50;100.00;100303.59;5054263;28;20049;-73
2023/11/08 01:41:28;;;;;;;6.25;1.50;;;;;;;8.47;100.00;100292.34;5056767;28;20152;-74
2023/11/08 01:43:59;;;;;;;9.02;1.80;;;;;;;8.55;100.00;100296.38;5057093;28;20068;-73
2023/11/08 01:46:30;;;;;;;10.43;2.03;;;;;;;8.55;100.00;100296.38;5045119;28;20060;-73
2023/11/08 01:49:01;;;;;;;8.03;2.10;;;;;;;8.60;100.00;100298.84;5044070;28;20164;-72
2023/11/08 01:51:32;;;;;;;7.35;1.95;;;;;;;8.62;100.00;100300.50;5057479;28;20550;-75
2023/11/08 01:54:00;;;;;;;4.80;1.55;;;;;;;8.64;100.00;100293.38;5051988;28;20044;-73
2023/11/08 01:56:30;;;;;;;6.03;1.70;;;;;;;8.60;100.00;100280.38;5063758;28;20183;-73
2023/11/08 01:59:00;;;;;;;5.72;1.70;;;;;;;8.67;100.00;100293.22;5059436;28;20037;-72
2023/11/08 02:01:29;;;;;;;6.75;1.60;;;;;;;8.65;100.00;100292.47;5066816;28;20068;-73
2023/11/08 02:03:58;;;;;;;5.15;1.48;;;;;;;8.68;100.00;100292.31;5051279;28;20042;-73
2023/11/08 02:06:27;;;;;;;6.30;1.45;;;;;;;8.68;100.00;100289.66;5048702;28;20108;-72
2023/11/08 02:09:00;;;;;;;5.90;1.70;;;;;;;8.68;100.00;100296.72;5038370;28;20493;-73
2023/11/08 02:11:29;;;;;;;6.15;1.48;;;;;;;8.68;100.00;100289.66;5046459;28;20053;-73
2023/11/08 02:13:58;;;;;;;7.20;1.83;;;;;;;8.66;100.00;100286.22;5047539;28;20049;-73
2023/11/08 02:16:26;;;;;;;7.75;1.63;;;;;;;8.69;100.00;100288.75;5064698;28;20513;-73
2023/11/08 02:18:56;;;;;;;4.85;1.52;;;;;;;8.63;100.00;100296.09;5042028;28;20128;-73
2023/11/08 02:21:24;;;;;;;4.43;1.60;;;;;;;8.64;100.00;100298.66;5048804;28;20056;-72
2023/11/08 02:23:53;;;;;;;8.48;1.60;;;;;;;8.36;100.00;100242.59;5026259;28;20506;-73
2023/11/08 02:26:23;;;;;;;5.28;1.70;;;;;;;8.67;100.00;100292.38;5047967;28;20056;-72
2023/11/08 02:28:51;;;;;;;5.70;1.58;;;;;;;8.51;100.00;100262.25;5040640;28;20068;-73
2023/11/08 02:31:21;;;;;;;6.13;1.88;;;;;;;8.71;100.00;100294.84;5046603;28;20049;-72
2023/11/08 02:33:51;;;;;;;6.55;1.60;;;;;;;8.55;100.00;100266.47;5052237;28;20052;-73
2023/11/08 02:36:22;;;;;;;6.47;1.80;;;;;;;8.71;100.00;100294.84;5045996;28;20096;-74
2023/11/08 02:38:51;;;;;;;9.18;1.83;;;;;;;8.70;100.00;100290.47;5040984;28;20049;-73
2023/11/08 02:41:20;;;;;;;9.73;2.13;;;;;;;8.69;100.00;100285.25;5050749;28;20044;-73
2023/11/08 02:43:50;;;;;;;8.25;1.80;;;;;;;8.69;100.00;100291.38;5047982;28;20091;-72
2023/11/08 02:46:19;;;;;;;9.55;1.90;;;;;;;8.69;100.00;100288.75;5027557;28;20766;-73
2023/11/08 02:48:48;;;;;;;6.95;1.90;;;;;;;8.69;100.00;100296.66;5042987;28;20052;-73
2023/11/08 02:51:16;;;;;;;8.55;1.80;;;;;;;8.67;100.00;100297.66;5028451;28;20661;-72
2023/11/08 02:53:44;;;;;;;5.80;1.63;;;;;;;8.68;100.00;100296.72;5047819;28;20046;-72
2023/11/08 02:56:15;;;;;;;7.78;1.95;;;;;;;8.71;100.00;100305.41;5031698;28;20583;-73
2023/11/08 02:58:44;;;;;;;7.32;1.90;;;;;;;8.71;100.00;100299.25;5053982;28;20674;-74
2023/11/08 03:01:14;;;;;;;5.03;1.90;;;;;;;8.71;100.00;100305.41;5047033;28;20051;-73
2023/11/08 03:03:41;;;;;;;7.00;2.03;;;;;;;8.71;100.00;100307.16;5048971;28;20129;-73
2023/11/08 03:06:10;;;;;;;8.02;2.38;;;;;;;8.65;100.00;100310.94;5055821;28;20041;-73
2023/11/08 03:08:38;;;;;;;5.95;2.10;;;;;;;8.55;100.00;100317.50;5040202;28;20045;-73
2023/11/08 03:11:07;;;;;;;7.25;1.75;;;;;;;8.43;100.00;100295.09;5046288;28;20041;-73
2023/11/08 03:13:36;;;;;;;9.23;1.80;;;;;;;8.55;100.00;100300.78;5047967;28;20488;-72
2023/11/08 03:16:07;;;;;;;6.88;1.75;;;;;;;8.55;100.00;100299.00;5045356;28;20140;-72
2023/11/08 03:18:39;;;;;;;5.70;1.98;;;;;;;8.58;100.00;100292.75;5043730;28;20124;-73
2023/11/08 03:21:10;;;;;;;3.28;1.40;;;;;;;8.66;100.00;100304.72;5039706;28;20080;-74
2023/11/08 03:23:39;;;;;;;5.93;1.83;;;;;;;8.63;100.00;100306.63;5052305;28;20048;-73
2023/11/08 03:26:07;;;;;;;5.95;1.65;;;;;;;8.64;100.00;100300.44;5048631;28;20111;-73
2023/11/08 03:28:35;;;;;;;8.48;1.95;;;;;;;8.69;100.00;100314.28;5044605;28;20041;-73
2023/11/08 03:31:03;;;;;;;5.43;1.42;;;;;;;8.71;100.00;100310.66;5038656;28;20053;-72
2023/11/08 03:33:33;;;;;;;6.53;1.73;;;;;;;8.65;100.00;100318.84;5049492;28;20045;-72
2023/11/08 03:36:06;;;;;;;3.53;1.40;;;;;;;8.61;100.00;100313.75;5050243;28;20210;-73
2023/11/08 03:38:35;;;;;;;5.15;2.00;;;;;;;8.59;100.00;100320.88;5060555;28;20041;-73
2023/11/08 03:41:04;;;;;;;6.65;2.10;;;;;;;8.64;100.00;100317.13;5048218;28;20055;-73
2023/11/08 03:43:31;;;;;;;6.47;1.63;;;;;;;8.65;100.00;100320.63;5049571;28;20049;-72
2023/11/08 03:45:59;;;;;;;7.13;1.50;;;;;;;8.69;100.00;100331.00;5048197;28;20529;-73
2023/11/08 03:48:29;;;;;;;6.32;1.90;;;;;;;8.63;100.00;100330.41;5040206;28;20449;-73
2023/11/08 03:50:57;;;;;;;6.50;1.60;;;;;;;8.51;100.00;100329.06;5038915;28;20638;-73
2023/11/08 03:53:27;;;;;;;6.68;1.88;;;;;;;8.25;100.00;100293.13;5031462;28;20128;-73
2023/11/08 03:55:56;;;;;;;4.57;1.45;;;;;;;8.49;100.00;100312.47;5047746;28;20046;-74
2023/11/08 03:58:26;;;;;;;;;;;;;;;8.56;100.00;100321.84;5039182;28;20033;-74
2023/11/08 04:00:55;;;;;;;4.65;1.50;;;;;;;8.55;100.00;100319.25;5043371;28;19924;-73
2023/11/08 04:03:24;;;;;;;6.20;1.50;;;;;;;8.57;100.00;100317.44;5068446;28;20056;-74
2023/11/08 04:05:54;;;;;;;8.43;1.80;;;;;;;8.55;100.00;100330.69;5047426;28;20037;-73
2023/11/08 04:08:31;;;;;;;7.10;1.70;;;;;;;8.49;100.00;100324.81;5046573;28;20045;-74
2023/11/08 04:11:02;;;;;;;7.85;1.83;;;;;;;8.50;100.00;100334.44;5044170;28;20056;-73
2023/11/08 04:13:32;;;;;;;4.40;2.08;;;;;;;8.53;100.00;100337.81;5063024;28;20122;-73
2023/11/08 04:16:00;;;;;;;5.65;1.70;;;;;;;8.54;100.00;100339.53;5052913;28;20087;-73
2023/11/08 04:18:28;;;;;;;4.70;1.65;;;;;;;8.54;100.00;100342.16;5029523;28;20044;-73
2023/11/08 04:20:56;;;;;;;8.05;1.85;;;;;;;8.54;100.00;100334.25;5045233;28;20051;-74
2023/11/08 04:23:24;;;;;;;6.25;2.00;;;;;;;8.63;100.00;100341.81;5052446;28;20163;-73
2023/11/08 04:25:54;;;;;;;5.05;1.48;;;;;;;8.60;100.00;100334.00;5051289;28;20049;-73
2023/11/08 04:28:23;;;;;;;6.90;1.60;;;;;;;8.65;100.00;100339.97;5053183;28;20087;-73
2023/11/08 04:30:50;;;;;;;3.60;1.50;;;;;;;8.71;100.00;100347.63;5057491;28;20044;-74
2023/11/08 04:33:19;;;;;;;4.35;1.60;;;;;;;8.65;100.00;100347.91;5054674;28;20044;-72
2023/11/08 04:35:48;;;;;;;3.90;1.42;;;;;;;8.57;100.00;100349.97;5053815;28;20036;-74
2023/11/08 04:38:15;;;;;;;5.43;1.50;;;;;;;8.53;100.00;100353.63;5049194;28;20059;-73
2023/11/08 04:40:43;;;;;;;5.78;1.60;;;;;;;8.55;100.00;100357.06;5025386;28;20063;-73
2023/11/08 04:43:15;;;;;;;3.33;1.35;;;;;;;8.51;100.00;100352.84;5050347;28;20052;-73
2023/11/08 04:45:43;;;;;;;3.67;1.50;;;;;;;8.58;100.00;100350.81;5048330;28;20053;-73
2023/11/08 04:48:12;;;;;;;3.47;1.23;;;;;;;8.58;100.00;100349.03;5054716;28;20583;-73
2023/11/08 04:50:40;;;;;;;5.10;1.60;;;;;;;8.43;100.00;100325.91;5054432;28;20048;-74
2023/11/08 04:53:10;;;;;;;6.90;1.65;;;;;;;8.54;100.00;100342.16;5050157;28;20068;-73
2023/11/08 04:55:41;;;;;;;8.52;1.90;;;;;;;8.57;100.00;100346.47;5049703;28;20077;-72
2023/11/08 04:58:09;;;;;;;4.00;1.70;;;;;;;8.57;100.00;100352.59;5051846;28;20064;-72
2023/11/08 05:00:40;;;;;;;5.50;1.40;;;;;;;8.56;100.00;100347.38;5039241;28;20132;-73
2023/11/08 05:03:08;;;;;;;5.70;1.70;;;;;;;8.61;100.00;100356.84;5050613;28;20045;-73
2023/11/08 05:05:35;;;;;;;7.65;1.90;;;;;;;8.63;100.00;100359.44;5067189;28;20041;-73
2023/11/08 05:08:05;;;;;;;5.38;1.80;;;;;;;8.56;100.00;100345.59;5051062;28;20486;-72
2023/11/08 05:10:33;;;;;;;4.10;1.75;;;;;;;8.54;100.00;100349.22;5042545;28;20053;-72
2023/11/08 05:13:03;;;;;;;6.57;1.88;;;;;;;8.47;100.00;100339.84;5063901;28;20045;-73
2023/11/08 05:15:31;;;;;;;4.45;1.65;;;;;;;8.50;100.00;100348.47;5033621;28;20144;-72
2023/11/08 05:18:04;;;;;;;8.25;2.13;;;;;;;8.38;100.00;100351.59;5031284;28;20050;-72
2023/11/08 05:20:32;;;;;;;6.20;1.85;;;;;;;8.33;100.00;100345.66;5025853;28;20045;-73
2023/11/08 05:23:01;;;;;;;5.32;1.60;;;;;;;8.29;100.00;100349.28;5046806;28;20455;-72
2023/11/08 05:25:30;;;;;;;7.70;1.90;;;;;;;8.35;100.00;100346.44;5047962;28;20053;-73
2023/11/08 05:27:59;;;;;;;4.93;1.98;;;;;;;8.30;100.00;100343.97;5044829;28;20383;-73
2023/11/08 05:30:30;;;;;;;5.65;1.80;;;;;;;8.31;100.00;100350.09;5039422;28;20110;-73
2023/11/08 05:32:58;;;;;;;7.20;2.17;;;;;;;8.26;100.00;100344.13;5068420;28;20044;-74
2023/11/08 05:35:29;;;;;;;6.65;2.22;;;;;;;8.26;100.00;100349.41;5053099;28;20041;-73
2023/11/08 05:37:58;;;;;;;4.90;2.40;;;;;;;8.22;100.00;100348.66;5050564;28;20052;-74
2023/11/08 05:40:30;;;;;;;8.55;2.60;;;;;;;8.17;100.00;100345.34;5042628;28;20037;-72
2023/11/08 05:42:58;;;;;;;7.13;1.90;;;;;;;8.19;100.00;100351.41;5034183;28;20072;-72
2023/11/08 05:45:26;;;;;;;6.22;2.47;;;;;;;8.25;100.00;100345.91;5046385;28;20118;-72
2023/11/08 05:47:54;;;;;;;6.30;2.60;;;;;;;8.22;100.00;100343.38;5045594;28;20080;-73
2023/11/08 05:50:23;;;;;;;6.35;2.45;;;;;;;8.18;100.00;100344.44;5057214;28;20128;-73
2023/11/08 05:52:54;;;;;;;4.82;2.60;;;;;;;8.03;100.00;100348.47;5047092;28;20044;-73
2023/11/08 05:55:22;;;;;;;4.40;2.25;;;;;;;7.87;100.00;100338.59;5045389;28;20045;-73
2023/11/08 05:57:52;;;;;;;8.02;2.80;;;;;;;7.83;100.00;100347.50;5048453;28;20084;-73
2023/11/08 06:00:22;;;;;;;7.00;3.00;;;;;;;7.91;100.00;100362.13;5043949;28;20057;-72
2023/11/08 06:02:54;;;;;;;5.30;3.20;;;;;;;7.92;100.00;100363.84;5046786;28;20091;-73
2023/11/08 06:05:23;;;;;;;6.90;2.75;;;;;;;7.90;100.00;100357.75;5030786;28;20055;-74
2023/11/08 06:07:55;;;;;;;5.75;2.80;;;;;;;7.93;100.00;100360.28;5047904;28;20077;-73
2023/11/08 06:10:24;;;;;;;6.65;2.88;;;;;;;7.84;100.00;100342.19;5037431;28;20886;-72
2023/11/08 06:12:52;;;;;;;7.50;2.95;;;;;;;7.92;100.00;100363.84;5045594;28;20045;-73
2023/11/08 06:15:21;;;;;;;7.20;3.25;;;;;;;7.92;100.00;100366.47;5047427;28;20417;-73
2023/11/08 06:17:52;;;;;;;7.20;3.20;;;;;;;7.95;100.00;100373.41;5030308;28;20140;-74
2023/11/08 06:20:20;;;;;;;9.27;3.25;;;;;;;7.94;100.00;100380.47;5060294;28;20132;-74
2023/11/08 06:22:49;;;;;;;8.75;4.15;;;;;;;7.84;100.00;100376.47;5045692;28;20041;-73
2023/11/08 06:25:19;;;;;;;7.40;3.88;;;;;;;7.98;100.00;100386.50;5034491;28;20476;-72
2023/11/08 06:27:49;;;;;;;7.65;3.38;;;;;;;8.01;100.00;100396.94;5054072;28;20402;-73
2023/11/08 06:30:22;;;;;;;10.43;3.72;;;;;;;8.02;100.00;100399.53;5044774;28;22756;-74
2023/11/08 06:32:50;;;;;;;10.15;3.70;;;;;;;8.03;100.00;100400.34;5045265;28;20037;-73
2023/11/08 06:35:19;;;;;;;8.68;3.70;;;;;;;8.01;100.00;100394.31;5048054;28;20053;-73
2023/11/08 06:37:50;;;;;;;6.70;3.47;;;;;;;7.86;100.00;100374.63;5056149;28;20053;-73
2023/11/08 06:40:21;;;;;;;8.55;3.30;;;;;;;8.10;100.00;100402.72;5043746;28;20057;-73
2023/11/08 06:42:50;;;;;;;6.28;3.45;;;;;;;8.16;100.00;100416.63;5028418;28;20572;-72
2023/11/08 06:45:20;;;;;;;7.57;3.30;;;;;;;8.18;100.00;100413.00;5022005;28;20460;-72
2023/11/08 06:47:48;;;;;;;13.55;3.90;;;;;;;8.18;100.00;100412.16;5046231;28;20048;-73
2023/11/08 06:50:16;;;;;;;8.35;3.20;;;;;;;8.13;100.00;100411.44;5042070;28;20419;-74
2023/11/08 06:52:46;;;;;;;9.48;3.70;;;;;;;8.16;100.00;100419.25;5039940;28;20041;-73
2023/11/08 06:55:15;;;;;;;8.15;3.15;;;;;;;8.21;100.00;100423.44;5011317;28;20059;-73
2023/11/08 06:58:00;;;;;;;9.40;3.50;;;;;;;8.31;100.00;100416.06;5052907;28;20079;-73
2023/11/08 07:00:29;;;;;;;8.05;3.30;;;;;;;8.42;100.00;100427.09;5058762;28;20072;-72
2023/11/08 07:02:57;;;;;;;5.68;3.25;;;;;;;8.44;100.00;100422.63;5054406;28;20076;-72
2023/11/08 07:05:26;;;;;;;9.63;3.03;;;;;;;8.54;100.00;100434.53;5062475;28;20517;-73
2023/11/08 07:08:05;;;;;;;4.75;2.95;;;;;;;8.51;100.00;100429.38;5066690;28;20067;-74
2023/11/08 07:10:34;;;;;;;6.10;3.33;;;;;;;8.54;100.00;100429.25;5041428;28;20459;-74
2023/11/08 07:13:04;;;;;;;7.80;3.10;;;;;;;8.58;100.00;100433.50;5044457;28;20033;-73
2023/11/08 07:15:33;;;;;;;6.90;2.90;;;;;;;8.66;100.00;100438.47;5044680;28;20378;-72
2023/11/08 07:18:01;;;;;;;8.32;3.00;;;;;;;8.67;100.00;100425.22;5054275;28;20056;-73
2023/11/08 07:20:30;;;;;;;8.70;3.10;;;;;;;8.73;100.00;100432.06;5054931;28;20076;-73
2023/11/08 07:23:02;;;;;;;9.38;3.20;;;;;;;8.78;100.00;100428.31;5042187;28;20063;-72
2023/11/08 07:25:32;;;;;;;7.80;3.05;;;;;;;8.80;100.00;100425.63;5028892;28;20564;-72
2023/11/08 07:28:01;;;;;;;8.32;2.50;;;;;;;8.79;100.00;100424.78;5028314;28;20456;-72
2023/11/08 07:30:30;;;;;;;6.38;2.20;;;;;;;8.90;100.00;100434.03;5040902;28;20100;-72
2023/11/08 07:33:00;;;;;;;7.57;2.50;;;;;;;8.94;100.00;100438.28;5040660;28;20053;-73
2023/11/08 07:35:30;;;;;;;8.05;2.60;;;;;;;8.97;100.00;100428.44;5065937;28;20076;-74
2023/11/08 07:37:59;;;;;;;9.07;2.47;;;;;;;9.04;100.00;100434.34;5053361;28;20040;-73
2023/11/08 07:40:28;;;;;;;11.80;2.47;;;;;;;9.07;100.00;100423.66;5048610;28;20049;-73
2023/11/08 07:42:59;;;;;;;7.55;2.53;;;;;;;9.18;100.00;100432.00;5045910;28;20037;-73
2023/11/08 07:45:27;;;;;;;9.23;2.10;;;;;;;9.33;100.00;100425.22;5038860;28;20060;-73
2023/11/08 07:48:01;;;;;;;10.18;2.35;;;;;;;9.48;100.00;100437.81;5058236;28;20456;-74
2023/11/08 07:50:29;;;;;;;7.75;2.05;;;;;;;9.60;100.00;100428.53;5062008;28;20037;-73
2023/11/08 07:52:57;;;;;;;6.40;2.22;;;;;;;9.73;100.00;100430.59;5039840;28;20132;-74
2023/11/08 07:55:26;;;;;;;9.73;2.42;;;;;;;9.84;100.00;100440.69;5054615;28;20029;-72
2023/11/08 07:57:54;;;;;;;11.35;3.20;;;;;;;9.91;100.00;100431.56;5044783;28;20050;-73
2023/11/08 08:00:24;;;;;;;6.05;2.22;;;;;;;9.94;100.00;100434.06;5049262;28;20048;-73
2023/11/08 08:02:52;;;;;;;;;;;;;;;9.98;100.00;100440.94;5026159;28;20482;-72
2023/11/08 08:05:23;;;;;;;7.40;1.92;;;;;;;9.98;100.00;100440.94;5053323;28;19932;-74
2023/11/08 08:07:52;;;;;;;5.82;2.40;;;;;;;9.96;100.00;100450.72;5049575;28;20049;-73
2023/11/08 08:10:22;;;;;;;9.75;2.53;;;;;;;9.95;100.00;100454.28;5051808;28;20084;-74
2023/11/08 08:12:54;;;;;;;12.32;2.40;;;;;;;9.89;100.00;100436.06;5061124;28;20041;-73
2023/11/08 08:15:24;;;;;;;9.10;2.17;;;;;;;9.88;100.00;100434.34;5063632;28;20041;-73
2023/11/08 08:17:59;;;;;;;9.35;2.78;;;;;;;9.81;100.00;100440.81;5053246;28;20067;-74
2023/11/08 08:20:30;;;;;;;9.45;2.30;;;;;;;9.78;100.00;100446.22;5037011;28;20060;-75
2023/11/08 08:22:58;;;;;;;;;;;;;;;9.87;100.00;100456.44;5052379;28;20063;-73
2023/11/08 08:25:28;;;;;;;10.13;2.15;;;;;;;9.80;100.00;100450.53;5053626;28;19925;-73
2023/11/08 08:27:58;;;;;;;7.65;2.25;;;;;;;9.72;100.00;100454.44;5059006;28;20040;-74
2023/11/08 08:30:27;;;;;;;7.20;2.05;;;;;;;9.67;100.00;100451.97;5068519;28;20045;-74
2023/11/08 08:32:57;;;;;;;7.63;1.95;;;;;;;9.71;100.00;100458.00;5042849;28;20045;-73
2023/11/08 08:35:25;;;;;;;;;;;;;;;9.79;100.00;100461.16;5054573;28;20123;-72
2023/11/08 08:37:58;;;;;;;;;;;;;;;9.85;100.00;100460.91;5050318;28;20019;-73
2023/11/08 08:40:27;;;;;;;4.40;1.70;;;;;;;9.85;100.00;100461.78;5068914;28;20031;-74
2023/11/08 08:42:57;;;;;;;8.18;1.90;;;;;;;9.84;100.00;100459.19;5038064;28;20149;-73
2023/11/08 08:45:27;;;;;;;;;;;;;;;9.93;100.00;100469.38;5065922;28;20138;-73
2023/11/08 08:47:59;;;;;;;4.13;1.48;;;;;;;9.90;100.00;100469.53;5053650;28;19921;-73
2023/11/08 08:50:28;;;;;;;8.35;2.25;;;;;;;10.00;100.00;100475.28;5047225;28;20048;-73
2023/11/08 08:52:59;;;;;;;7.18;2.10;;;;;;;10.01;100.00;100477.84;5043097;28;20037;-73
2023/11/08 08:55:27;;;;;;;5.95;1.90;;;;;;;10.06;100.00;100482.94;5064461;28;20064;-73
2023/11/08 08:57:55;;;;;;;7.25;2.20;;;;;;;10.05;100.00;100484.75;5056527;28;20063;-74
2023/11/08 09:00:24;;;;;;;4.53;1.88;;;;;;;10.04;100.00;100488.31;5064812;28;20048;-72
2023/11/08 09:02:53;;;;;;;8.23;1.70;;;;;;;10.11;100.00;100481.81;5042609;28;20083;-73
2023/11/08 09:05:23;;;;;;;5.35;2.22;;;;;;;10.25;100.00;100486.53;5051807;28;20140;-72
2023/11/08 09:07:51;;;;;;;;;;;;;;;10.47;100.00;100497.88;5045567;28;20132;-73
2023/11/08 09:10:22;;;;;;;7.53;1.50;;;;;;;10.63;100.00;100476.00;5053419;28;19921;-73
2023/11/08 09:12:50;;;;;;;5.35;1.52;;;;;;;10.66;100.00;100491.75;5056303;28;20041;-72
2023/11/08 09:15:19;;;;;;;6.40;1.83;;;;;;;10.38;100.00;100493.03;5024102;28;20077;-74
2023/11/08 09:17:48;;;;;;;4.35;1.60;;;;;;;10.21;100.00;100487.59;5065109;28;20065;-72
2023/11/08 09:20:18;;;;;;;8.77;1.90;;;;;;;10.12;100.00;100504.69;5052239;28;20043;-73
2023/11/08 09:22:49;;;;;;;6.82;1.40;;;;;;;9.88;100.00;100479.31;5040147;28;20114;-73
2023/11/08 09:25:17;;;;;;;5.03;1.70;;;;;;;9.94;100.00;100494.91;5052945;28;20469;-73
2023/11/08 09:27:49;;;;;;;9.05;1.95;;;;;;;9.90;100.00;100497.75;5050374;28;20044;-73
2023/11/08 09:30:19;;;;;;;9.77;1.80;;;;;;;9.86;100.00;100504.97;5053104;28;20673;-74
2023/11/08 09:32:50;;;;;;;10.85;1.80;;;;;;;9.89;100.00;100506.63;5025472;28;20101;-72
2023/11/08 09:35:21;;;;;;;3.55;1.42;;;;;;;9.99;100.00;100505.28;5033489;28;20049;-72
2023/11/08 09:37:50;;;;;;;7.00;1.60;;;;;;;10.16;100.00;100508.06;5053059;28;20114;-73
2023/11/08 09:40:18;;;;;;;4.55;1.27;;;;;;;10.37;100.00;100508.97;5052207;28;20041;-72
2023/11/08 09:42:48;;;;;;;4.63;1.13;;;;;;;10.31;100.00;100509.22;5039715;28;20521;-73
2023/11/08 09:45:17;;;;;;;5.80;1.60;;;;;;;10.26;100.00;100511.19;5053877;28;20036;-74
2023/11/08 09:47:47;;;;;;;7.57;1.55;;;;;;;10.10;100.00;100498.59;5053514;28;20041;-73
2023/11/08 09:50:16;;;;;;;3.45;1.33;;;;;;;10.00;100.00;100501.72;5051680;28;20052;-73
2023/11/08 09:52:44;;;;;;;3.78;1.15;;;;;;;9.97;100.00;100502.72;5037057;28;20059;-72
2023/11/08 09:55:13;;;;;;;5.65;1.30;;;;;;;9.93;100.00;100516.97;5052006;28;20079;-73
2023/11/08 09:57:44;;;;;;;5.85;1.40;;;;;;;9.92;100.00;100498.53;5050865;28;20037;-73
2023/11/08 10:00:17;;;;;;;5.15;1.30;;;;;;;10.01;100.00;100506.94;5050440;28;20049;-74
2023/11/08 10:02:48;;;;;;;6.53;1.10;;;;;;;10.13;100.00;100502.91;5062557;28;20481;-73
2023/11/08 10:05:18;;;;;;;5.82;1.75;;;;;;;10.23;100.00;100488.38;5055336;28;20045;-73
2023/11/08 10:07:49;;;;;;;5.55;1.45;;;;;;;10.30;100.00;100489.84;5055222;28;20041;-73
2023/11/08 10:10:18;;;;;;;7.95;1.52;;;;;;;10.25;100.00;100483.88;5034854;28;20048;-74
2023/11/08 10:12:46;;;;;;;7.15;1.75;;;;;;;10.36;100.00;100479.00;5031964;28;20049;-73
2023/11/08 10:15:23;;;;;;;2.90;1.45;;;;;;;10.60;100.00;100477.00;5055528;28;21041;-73
2023/11/08 10:17:51;;;;;;;8.38;1.80;;;;;;;10.75;100.00;100478.94;5040811;28;20057;-72
2023/11/08 10:20:41;;;;;;;6.15;1.65;;;;;;;10.84;100.00;100480.31;5071159;28;20071;-73
2023/11/08 10:23:29;;;;;;;4.50;1.40;;;;;;;11.04;100.00;100472.28;5045778;28;20052;-73
2023/11/08 10:26:14;;;;;;;5.65;1.50;;;;;;;11.34;100.00;100464.63;5068972;28;20055;-73
2023/11/08 10:29:00;;;;;;;3.40;1.40;;;;;;;11.72;100.00;100453.91;5053174;28;20044;-72
2023/11/08 10:31:32;;;;;;;5.07;1.20;;;;;;;11.96;100.00;100434.13;5070855;28;20049;-73
2023/11/08 10:34:02;;;;;;;4.88;1.65;;;;;;;11.78;100.00;100440.41;5050311;28;20094;-73
2023/11/08 10:36:32;;;;;;;4.80;1.45;;;;;;;11.74;100.00;100446.75;5051818;28;20036;-73
2023/11/08 10:39:03;;;;;;;4.47;1.42;;;;;;;11.88;100.00;100428.34;5048083;28;20051;-74
2023/11/08 10:41:32;;;;;;;;;;;;;;;12.08;100.00;100433.50;5054180;28;20045;-73
2023/11/08 10:44:09;;;;;;;6.38;1.50;;;;;;;12.14;100.00;100416.38;5038915;28;20428;-74
2023/11/08 10:46:40;;;;;;;5.40;1.35;;;;;;;12.42;100.00;100439.66;5052301;28;20072;-74
2023/11/08 10:49:11;;;;;;;7.18;1.55;;;;;;;12.54;100.00;100431.88;5032285;28;20042;-74
2023/11/08 10:51:41;;;;;;;3.90;1.85;;;;;;;12.37;100.00;100433.75;5043824;28;20056;-72
2023/11/08 10:54:15;;;;;;;2.03;1.10;;;;;;;12.07;100.00;100426.47;5039477;28;20084;-73
2023/11/08 10:56:45;;;;;;;;;;;;;;;12.13;100.00;100438.53;5072009;28;20087;-73
2023/11/08 10:59:18;;;;;;;3.33;1.00;;;;;;;11.79;100.00;100442.09;5047270;28;20392;-75
2023/11/08 11:01:49;;;;;;;7.75;2.22;;;;;;;11.78;100.00;100433.28;5050350;28;20079;-72
2023/11/08 11:04:21;;;;;;;5.22;1.58;;;;;;;11.86;100.00;100432.88;5043840;28;20381;-73
2023/11/08 11:06:50;;;;;;;3.65;1.45;;;;;;;12.01;100.00;100428.56;5052809;28;20045;-74
2023/11/08 11:09:18;;;;;;;6.25;1.98;;;;;;;12.14;100.00;100433.16;5047284;28;20454;-74
2023/11/08 11:11:53;;;;;;;4.03;1.42;;;;;;;12.08;100.00;100438.81;5054390;28;20056;-75
2023/11/08 11:14:28;;;;;;;4.60;1.38;;;;;;;11.72;100.00;100449.47;5043425;28;20176;-73
2023/11/08 11:17:18;;;;;;;4.85;1.50;;;;;;;11.51;100.00;100450.53;5055620;28;20037;-74
2023/11/08 11:19:50;;;;;;;9.40;2.43;;;;;;;11.46;100.00;100426.94;5072709;28;20099;-73
2023/11/08 11:22:26;;;;;;;5.32;1.50;;;;;;;11.47;100.00;100428.66;5048924;28;20124;-73
2023/11/08 11:24:57;;;;;;;7.05;2.08;;;;;;;11.42;100.00;100422.72;5046611;28;20052;-74
2023/11/08 11:27:46;;;;;;;5.35;1.80;;;;;;;11.39;100.00;100414.91;5069719;28;20049;-73
2023/11/08 11:30:27;;;;;;;6.28;2.22;;;;;;;11.41;100.00;100417.47;5051944;28;20045;-75
2023/11/08 11:33:00;;;;;;;4.68;1.50;;;;;;;11.42;100.00;100425.34;5047629;28;20037;-74
2023/11/08 11:36:00;;;;;;;4.75;1.70;;;;;;;11.33;100.00;100428.47;5070931;28;20275;-74
2023/11/08 11:38:28;;;;;;;5.35;2.22;;;;;;;11.27;100.00;100410.22;5056046;28;20115;-73